Bugt, China
Current Conditions -  °F | °C
As of 3:00 AM on Friday 28 Nov 2014 (Local Time) from ZYTX Reporting Station
Overcast Overcast  
Wind Chill: 30°   Ceiling: 3300
Heat Index: 30°   Visibility: 6mi
Dew Point:   Wind: 2mph
Humidity: 37%   Direction: 110°ESE
Pressure: 30.21"   Gusts: NA
Location:  42.33°N, 120.7°E
Report Text: ZYTX 271900Z 11001MPS 9999 OVC033 M01/M14 Q1023 NOSIG
Loading
Personal Weather Stations






























Interactive Weather Map New forecast layout! Learn more

10-Day Weather Forecast

Advertisements
Track Severe Weather on mobile